Disclaimer

Please do not use the information listed here in-flight or in-navigation, as they are not provided to us by the airports but are provided by volunteers, so they might be outdated.

Search


Regions


Airport information page

No radio frequency information is available.

Airport informations:
Latitude: 12° 48' 31.96" S
Longitude: 015° 45' 37.97" E
Elevation: 5587 feet - 1703 meters
Operating hours: From sunrise to sunset (SR-SS)
Operating agency: Civil government, landing fees and diplomatic clearance may be required
Timezone: UTC+1
Fuel: N/A

Runway information:
11/29 - 8727 x 148 feet< - >2660 x 45 meters

Recent METARs:
FNHU 160900Z 29005KT 9999 FEW012 SCT080 25/18 Q1024
FNHU 161000Z 19004KT 9999 SCT013 27/17 Q1022
FNHU 161000Z 19004KT 9999 SCT013 27/17 Q1022

Airport on the map: